EZY92QG EGKK-LEPA
Flight info
| Callsign | EZY92QG |
|---|---|
| Flight time | 1h 54m |
| Altitude | 33000 |
| Route | SFD Y47 DRAKE L151 SITET UN859 SOPIL DCT BALAN DCT EVPOK DCT NARAK DCT GAI DCT LOMRA DCT ROCAN DCT IBRAP DCT LUKEV DCT LORES |
| Aircraft | A320/M-SDE2E3FGHIJ1RWXYZ/LB1 |
Departure
| Time | 2026-05-06 22:14 |
|---|---|
| Airport | London Gatwick Airport (EGKK) |
Arrival
| Time | 2026-05-07 00:08 |
|---|---|
| Airport | Palma de Mallorca Airport (LEPA) |
| Time | Latitude | Longitude | Altitude | Speed | Heading |
|---|---|---|---|---|---|
| 2026-05-06 21:28 | 51.15637 | -0.17848 | 209 ft | 0 kts | 167° |
| 2026-05-06 22:02 | 51.15652 | -0.17853 | 216 ft | 4 kts | 167° |
| 2026-05-06 22:02 | 51.15679 | -0.17862 | 215 ft | 4 kts | 167° |
| 2026-05-06 22:02 | 51.15699 | -0.17870 | 211 ft | 4 kts | 185° |
| 2026-05-06 22:02 | 51.15714 | -0.17852 | 213 ft | 3 kts | 257° |
| 2026-05-06 22:03 | 51.15718 | -0.17821 | 213 ft | 0 kts | 257° |
| 2026-05-06 22:06 | 51.15714 | -0.17848 | 213 ft | 8 kts | 258° |
| 2026-05-06 22:06 | 51.15697 | -0.17978 | 205 ft | 14 kts | 258° |
| 2026-05-06 22:06 | 51.15674 | -0.18145 | 211 ft | 17 kts | 258° |
| 2026-05-06 22:06 | 51.15647 | -0.18343 | 206 ft | 20 kts | 257° |
| 2026-05-06 22:07 | 51.15615 | -0.18569 | 208 ft | 22 kts | 257° |
| 2026-05-06 22:07 | 51.15587 | -0.18773 | 209 ft | 13 kts | 257° |
| 2026-05-06 22:07 | 51.15513 | -0.18815 | 204 ft | 15 kts | 166° |
| 2026-05-06 22:07 | 51.15403 | -0.18775 | 213 ft | 17 kts | 167° |
| 2026-05-06 22:08 | 51.15276 | -0.18730 | 208 ft | 20 kts | 167° |
| 2026-05-06 22:08 | 51.15169 | -0.18695 | 216 ft | 12 kts | 168° |
| 2026-05-06 22:08 | 51.15127 | -0.18755 | 213 ft | 10 kts | 259° |
| 2026-05-06 22:08 | 51.15113 | -0.18870 | 213 ft | 11 kts | 259° |
| 2026-05-06 22:09 | 51.15094 | -0.18995 | 207 ft | 15 kts | 256° |
| 2026-05-06 22:09 | 51.15066 | -0.19198 | 211 ft | 21 kts | 258° |
| 2026-05-06 22:09 | 51.15036 | -0.19436 | 210 ft | 23 kts | 258° |
| 2026-05-06 22:09 | 51.14997 | -0.19705 | 211 ft | 26 kts | 257° |
| 2026-05-06 22:10 | 51.14971 | -0.19896 | 213 ft | 28 kts | 257° |
| 2026-05-06 22:10 | 51.14928 | -0.20197 | 210 ft | 25 kts | 257° |
| 2026-05-06 22:10 | 51.14889 | -0.20475 | 203 ft | 22 kts | 257° |
| 2026-05-06 22:10 | 51.14849 | -0.20633 | 205 ft | 14 kts | 208° |
| 2026-05-06 22:11 | 51.14725 | -0.20721 | 203 ft | 13 kts | 176° |
| 2026-05-06 22:11 | 51.14709 | -0.20717 | 204 ft | 0 kts | 169° |
| 2026-05-06 22:11 | 51.14699 | -0.20714 | 204 ft | 0 kts | 169° |
| 2026-05-06 22:12 | 51.14685 | -0.20709 | 208 ft | 8 kts | 169° |
| 2026-05-06 22:12 | 51.14610 | -0.20684 | 208 ft | 9 kts | 168° |
| 2026-05-06 22:12 | 51.14595 | -0.20621 | 209 ft | 7 kts | 76° |
| 2026-05-06 22:13 | 51.14597 | -0.20601 | 216 ft | 0 kts | 77° |
| 2026-05-06 22:13 | 51.14611 | -0.20506 | 205 ft | 34 kts | 78° |
| 2026-05-06 22:13 | 51.14716 | -0.19744 | 214 ft | 103 kts | 77° |
| 2026-05-06 22:13 | 51.14906 | -0.18340 | 213 ft | 154 kts | 78° |
| 2026-05-06 22:14 | 51.15153 | -0.16597 | 705 ft | 163 kts | 77° |
| 2026-05-06 22:14 | 51.15407 | -0.14819 | 1342 ft | 169 kts | 75° |
| 2026-05-06 22:14 | 51.15668 | -0.12933 | 1848 ft | 183 kts | 75° |
| 2026-05-06 22:14 | 51.15967 | -0.10825 | 2135 ft | 208 kts | 76° |
| 2026-05-06 22:15 | 51.16286 | -0.08473 | 2656 ft | 222 kts | 79° |
| 2026-05-06 22:15 | 51.16357 | -0.06018 | 3430 ft | 228 kts | 102° |
| 2026-05-06 22:15 | 51.15545 | -0.03737 | 3767 ft | 255 kts | 139° |
| 2026-05-06 22:15 | 51.13903 | -0.02519 | 4335 ft | 269 kts | 171° |
| 2026-05-06 22:16 | 51.12035 | -0.02303 | 5243 ft | 271 kts | 180° |
| 2026-05-06 22:16 | 51.10132 | -0.02253 | 6065 ft | 276 kts | 179° |
| 2026-05-06 22:16 | 51.08202 | -0.02135 | 6900 ft | 279 kts | 178° |
| 2026-05-06 22:16 | 51.06258 | -0.01965 | 7750 ft | 280 kts | 177° |
| 2026-05-06 22:17 | 51.04312 | -0.01558 | 8544 ft | 285 kts | 167° |
| 2026-05-06 22:17 | 51.02382 | -0.00683 | 9318 ft | 291 kts | 163° |
| 2026-05-06 22:17 | 51.00459 | 0.00352 | 10131 ft | 293 kts | 161° |
| 2026-05-06 22:17 | 50.98532 | 0.01438 | 10843 ft | 296 kts | 161° |
| 2026-05-06 22:18 | 50.96571 | 0.02515 | 11537 ft | 300 kts | 162° |
| 2026-05-06 22:18 | 50.94576 | 0.03555 | 12264 ft | 303 kts | 163° |
| 2026-05-06 22:18 | 50.92550 | 0.04552 | 12983 ft | 306 kts | 164° |
| 2026-05-06 22:18 | 50.90494 | 0.05510 | 13693 ft | 310 kts | 165° |
| 2026-05-06 22:19 | 50.88412 | 0.06461 | 14345 ft | 313 kts | 165° |
| 2026-05-06 22:19 | 50.86312 | 0.07421 | 14967 ft | 316 kts | 165° |
| 2026-05-06 22:19 | 50.84192 | 0.08395 | 15598 ft | 318 kts | 165° |
| 2026-05-06 22:19 | 50.82080 | 0.09371 | 16230 ft | 321 kts | 165° |
| 2026-05-06 22:20 | 50.79933 | 0.10370 | 16854 ft | 324 kts | 165° |
| 2026-05-06 22:20 | 50.77751 | 0.11321 | 17480 ft | 326 kts | 170° |
| 2026-05-06 22:20 | 50.75495 | 0.11650 | 18075 ft | 328 kts | 182° |
| 2026-05-06 22:20 | 50.73179 | 0.11194 | 18237 ft | 343 kts | 194° |
| 2026-05-06 22:21 | 50.70800 | 0.10304 | 18371 ft | 360 kts | 194° |
| 2026-05-06 22:21 | 50.68325 | 0.09383 | 18628 ft | 370 kts | 194° |
| 2026-05-06 22:21 | 50.65802 | 0.08452 | 19082 ft | 374 kts | 194° |
| 2026-05-06 22:21 | 50.63253 | 0.07520 | 19579 ft | 377 kts | 194° |
| 2026-05-06 22:22 | 50.60691 | 0.06589 | 20092 ft | 379 kts | 194° |
| 2026-05-06 22:22 | 50.58114 | 0.05661 | 20591 ft | 382 kts | 194° |
| 2026-05-06 22:22 | 50.55512 | 0.04728 | 21082 ft | 384 kts | 194° |
| 2026-05-06 22:22 | 50.52898 | 0.03793 | 21564 ft | 387 kts | 194° |
| 2026-05-06 22:23 | 50.50265 | 0.02857 | 22039 ft | 389 kts | 194° |
| 2026-05-06 22:23 | 50.47618 | 0.01914 | 22516 ft | 392 kts | 194° |
| 2026-05-06 22:23 | 50.44948 | 0.00962 | 22983 ft | 394 kts | 194° |
| 2026-05-06 22:23 | 50.42268 | 0.00003 | 23440 ft | 396 kts | 194° |
| 2026-05-06 22:24 | 50.39571 | -0.00970 | 23817 ft | 399 kts | 194° |
| 2026-05-06 22:24 | 50.36849 | -0.01950 | 24178 ft | 402 kts | 194° |
| 2026-05-06 22:24 | 50.34113 | -0.02929 | 24544 ft | 404 kts | 194° |
| 2026-05-06 22:24 | 50.31365 | -0.03914 | 24905 ft | 406 kts | 194° |
| 2026-05-06 22:25 | 50.28603 | -0.04901 | 25275 ft | 408 kts | 194° |
| 2026-05-06 22:25 | 50.25821 | -0.05879 | 25632 ft | 410 kts | 192° |
| 2026-05-06 22:25 | 50.22973 | -0.06379 | 25975 ft | 414 kts | 182° |
| 2026-05-06 22:25 | 50.20087 | -0.06075 | 26313 ft | 419 kts | 172° |
| 2026-05-06 22:26 | 50.17289 | -0.04976 | 26625 ft | 423 kts | 161° |
| 2026-05-06 22:26 | 50.14573 | -0.03175 | 26950 ft | 426 kts | 157° |
| 2026-05-06 22:26 | 50.11867 | -0.01279 | 27281 ft | 428 kts | 157° |
| 2026-05-06 22:26 | 50.09083 | 0.00366 | 27596 ft | 429 kts | 165° |
| 2026-05-06 22:27 | 50.06186 | 0.01518 | 27919 ft | 431 kts | 167° |
| 2026-05-06 22:27 | 50.03269 | 0.02653 | 28240 ft | 433 kts | 167° |
| 2026-05-06 22:27 | 50.00339 | 0.03806 | 28560 ft | 435 kts | 167° |
| 2026-05-06 22:27 | 49.97397 | 0.04966 | 28874 ft | 437 kts | 167° |
| 2026-05-06 22:28 | 49.94439 | 0.06132 | 29171 ft | 440 kts | 167° |
| 2026-05-06 22:28 | 49.91464 | 0.07303 | 29471 ft | 442 kts | 167° |
| 2026-05-06 22:28 | 49.88477 | 0.08478 | 29765 ft | 444 kts | 167° |
| 2026-05-06 22:28 | 49.85477 | 0.09657 | 30052 ft | 446 kts | 167° |
| 2026-05-06 22:29 | 49.82462 | 0.10837 | 30292 ft | 448 kts | 167° |
| 2026-05-06 22:29 | 49.79433 | 0.12018 | 30530 ft | 450 kts | 167° |
| 2026-05-06 22:29 | 49.76392 | 0.13205 | 30768 ft | 451 kts | 167° |
| 2026-05-06 22:29 | 49.73344 | 0.14396 | 30999 ft | 453 kts | 167° |
| 2026-05-06 22:30 | 49.70289 | 0.15584 | 31317 ft | 452 kts | 167° |
| 2026-05-06 22:30 | 49.67244 | 0.16762 | 31642 ft | 451 kts | 167° |
| 2026-05-06 22:30 | 49.64200 | 0.17961 | 31967 ft | 451 kts | 166° |
| 2026-05-06 22:30 | 49.61169 | 0.19182 | 32291 ft | 450 kts | 166° |
| 2026-05-06 22:31 | 49.58144 | 0.20411 | 32609 ft | 450 kts | 166° |
| 2026-05-06 22:31 | 49.55121 | 0.21638 | 32940 ft | 449 kts | 166° |
| 2026-05-06 22:31 | 49.52102 | 0.22860 | 33257 ft | 448 kts | 166° |
| 2026-05-06 22:31 | 49.49085 | 0.24076 | 33554 ft | 448 kts | 166° |
| 2026-05-06 22:32 | 49.46067 | 0.25286 | 33857 ft | 448 kts | 166° |
| 2026-05-06 22:32 | 49.43093 | 0.26475 | 34144 ft | 447 kts | 166° |
| 2026-05-06 22:32 | 49.40074 | 0.27682 | 34402 ft | 447 kts | 166° |
| 2026-05-06 22:32 | 49.37063 | 0.28880 | 34648 ft | 447 kts | 166° |
| 2026-05-06 22:33 | 49.34055 | 0.30074 | 34881 ft | 447 kts | 166° |
| 2026-05-06 22:33 | 49.31045 | 0.31271 | 35002 ft | 446 kts | 166° |
| 2026-05-06 22:33 | 49.25093 | 0.33725 | 35025 ft | 441 kts | 165° |
| 2026-05-06 22:34 | 49.19185 | 0.36256 | 35023 ft | 440 kts | 165° |
| 2026-05-06 22:34 | 49.13281 | 0.38768 | 35023 ft | 440 kts | 165° |
| 2026-05-06 22:35 | 49.07374 | 0.41256 | 35015 ft | 440 kts | 166° |
| 2026-05-06 22:35 | 49.01456 | 0.43718 | 35024 ft | 441 kts | 166° |
| 2026-05-06 22:36 | 48.95536 | 0.46183 | 35023 ft | 442 kts | 165° |
| 2026-05-06 22:36 | 48.89601 | 0.48660 | 35021 ft | 442 kts | 165° |
| 2026-05-06 22:37 | 48.83660 | 0.51127 | 35023 ft | 443 kts | 165° |
| 2026-05-06 22:37 | 48.77717 | 0.53582 | 35023 ft | 443 kts | 166° |
| 2026-05-06 22:38 | 48.71792 | 0.55928 | 35029 ft | 443 kts | 166° |
| 2026-05-06 22:38 | 48.65819 | 0.58223 | 35030 ft | 443 kts | 166° |
| 2026-05-06 22:39 | 48.59848 | 0.60533 | 35021 ft | 443 kts | 166° |
| 2026-05-06 22:39 | 48.53874 | 0.62864 | 35020 ft | 444 kts | 166° |
| 2026-05-06 22:40 | 48.47903 | 0.65231 | 35019 ft | 444 kts | 165° |
| 2026-05-06 22:40 | 48.41942 | 0.67672 | 35019 ft | 444 kts | 165° |
| 2026-05-06 22:41 | 48.32993 | 0.71339 | 35020 ft | 444 kts | 165° |
| 2026-05-06 22:42 | 48.27023 | 0.73748 | 35022 ft | 444 kts | 166° |
| 2026-05-06 22:42 | 48.21044 | 0.76140 | 35011 ft | 445 kts | 166° |
| 2026-05-06 22:43 | 48.15057 | 0.78491 | 35016 ft | 445 kts | 166° |
| 2026-05-06 22:43 | 48.09109 | 0.80815 | 35011 ft | 445 kts | 166° |
| 2026-05-06 22:44 | 48.03122 | 0.83155 | 35010 ft | 445 kts | 166° |
| 2026-05-06 22:44 | 47.97133 | 0.85498 | 35014 ft | 445 kts | 166° |
| 2026-05-06 22:45 | 47.91140 | 0.87836 | 35019 ft | 445 kts | 166° |
| 2026-05-06 22:45 | 47.85145 | 0.90162 | 35016 ft | 445 kts | 166° |
| 2026-05-06 22:46 | 47.79153 | 0.92477 | 35007 ft | 445 kts | 166° |
| 2026-05-06 22:46 | 47.73159 | 0.94802 | 35009 ft | 445 kts | 166° |
| 2026-05-06 22:47 | 47.67165 | 0.97128 | 35012 ft | 445 kts | 166° |
| 2026-05-06 22:47 | 47.61168 | 0.99438 | 35008 ft | 445 kts | 166° |
| 2026-05-06 22:48 | 47.55169 | 1.01739 | 35005 ft | 445 kts | 166° |
| 2026-05-06 22:48 | 47.49176 | 1.04045 | 35003 ft | 445 kts | 166° |
| 2026-05-06 22:49 | 47.43147 | 1.06127 | 35004 ft | 444 kts | 174° |
| 2026-05-06 22:49 | 47.36989 | 1.06297 | 34998 ft | 443 kts | 182° |
| 2026-05-06 22:50 | 47.30865 | 1.06140 | 35004 ft | 443 kts | 182° |
| 2026-05-06 22:50 | 47.24697 | 1.06011 | 35001 ft | 443 kts | 182° |
| 2026-05-06 22:51 | 47.18529 | 1.05870 | 35004 ft | 443 kts | 182° |
| 2026-05-06 22:51 | 47.12364 | 1.05719 | 35001 ft | 443 kts | 182° |
| 2026-05-06 22:52 | 47.06188 | 1.05574 | 34995 ft | 443 kts | 182° |
| 2026-05-06 22:52 | 47.00023 | 1.05419 | 35001 ft | 443 kts | 182° |
| 2026-05-06 22:53 | 46.93858 | 1.05163 | 34996 ft | 443 kts | 183° |
| 2026-05-06 22:53 | 46.87691 | 1.04877 | 35004 ft | 443 kts | 183° |
| 2026-05-06 22:54 | 46.81528 | 1.04603 | 35007 ft | 443 kts | 183° |
| 2026-05-06 22:54 | 46.75368 | 1.04337 | 35008 ft | 443 kts | 183° |
| 2026-05-06 22:55 | 46.69205 | 1.04075 | 35007 ft | 443 kts | 183° |
| 2026-05-06 22:55 | 46.63084 | 1.03818 | 35008 ft | 443 kts | 183° |
| 2026-05-06 22:56 | 46.56931 | 1.03556 | 35006 ft | 443 kts | 183° |
| 2026-05-06 22:56 | 46.50777 | 1.03709 | 35004 ft | 444 kts | 173° |
| 2026-05-06 22:57 | 46.44728 | 1.05632 | 34995 ft | 445 kts | 168° |
| 2026-05-06 22:57 | 46.38696 | 1.07661 | 34992 ft | 445 kts | 168° |
| 2026-05-06 22:58 | 46.32661 | 1.09675 | 35002 ft | 445 kts | 168° |
| 2026-05-06 22:58 | 46.26622 | 1.11675 | 35004 ft | 445 kts | 168° |
| 2026-05-06 22:59 | 46.20582 | 1.13680 | 34997 ft | 445 kts | 168° |
| 2026-05-06 22:59 | 46.14542 | 1.15689 | 34988 ft | 445 kts | 168° |
| 2026-05-06 23:00 | 46.09522 | 1.17346 | 34999 ft | 445 kts | 168° |
| 2026-05-06 23:00 | 46.03476 | 1.19340 | 35000 ft | 446 kts | 169° |
| 2026-05-06 23:01 | 45.97418 | 1.21331 | 35000 ft | 446 kts | 169° |
| 2026-05-06 23:01 | 45.91359 | 1.23319 | 34992 ft | 446 kts | 169° |
| 2026-05-06 23:02 | 45.85301 | 1.25312 | 34994 ft | 447 kts | 169° |
| 2026-05-06 23:02 | 45.79240 | 1.27293 | 34996 ft | 447 kts | 169° |
| 2026-05-06 23:03 | 45.73219 | 1.29258 | 34995 ft | 447 kts | 169° |
| 2026-05-06 23:03 | 45.67152 | 1.31231 | 34998 ft | 447 kts | 169° |
| 2026-05-06 23:04 | 45.61086 | 1.33189 | 34999 ft | 447 kts | 169° |
| 2026-05-06 23:04 | 45.55024 | 1.35156 | 34985 ft | 446 kts | 169° |
| 2026-05-06 23:05 | 45.48970 | 1.37121 | 34988 ft | 446 kts | 169° |
| 2026-05-06 23:05 | 45.42913 | 1.39088 | 34992 ft | 446 kts | 169° |
| 2026-05-06 23:06 | 45.36854 | 1.41036 | 34984 ft | 446 kts | 169° |
| 2026-05-06 23:06 | 45.30792 | 1.42981 | 34999 ft | 447 kts | 169° |
| 2026-05-06 23:07 | 45.24730 | 1.44923 | 35001 ft | 446 kts | 169° |
| 2026-05-06 23:07 | 45.18671 | 1.46855 | 35009 ft | 446 kts | 169° |
| 2026-05-06 23:08 | 45.12652 | 1.48768 | 35007 ft | 446 kts | 170° |
| 2026-05-06 23:08 | 45.06604 | 1.50692 | 35009 ft | 445 kts | 170° |
| 2026-05-06 23:09 | 45.00567 | 1.52612 | 35005 ft | 445 kts | 170° |
| 2026-05-06 23:09 | 44.94530 | 1.54531 | 34996 ft | 444 kts | 170° |
| 2026-05-06 23:10 | 44.88506 | 1.56438 | 34999 ft | 443 kts | 170° |
| 2026-05-06 23:10 | 44.82490 | 1.58340 | 35000 ft | 443 kts | 170° |
| 2026-05-06 23:11 | 44.76472 | 1.60238 | 35001 ft | 443 kts | 170° |
| 2026-05-06 23:11 | 44.70460 | 1.62129 | 35002 ft | 443 kts | 170° |
| 2026-05-06 23:12 | 44.64441 | 1.64010 | 35000 ft | 443 kts | 170° |
| 2026-05-06 23:12 | 44.58426 | 1.65892 | 34996 ft | 442 kts | 171° |
| 2026-05-06 23:13 | 44.52418 | 1.67773 | 35005 ft | 442 kts | 171° |
| 2026-05-06 23:13 | 44.46419 | 1.69642 | 35007 ft | 442 kts | 171° |
| 2026-05-06 23:14 | 44.40412 | 1.71507 | 34987 ft | 441 kts | 171° |
| 2026-05-06 23:14 | 44.34455 | 1.73357 | 34997 ft | 441 kts | 171° |
| 2026-05-06 23:15 | 44.28463 | 1.75195 | 35007 ft | 440 kts | 172° |
| 2026-05-06 23:15 | 44.22433 | 1.76643 | 35008 ft | 438 kts | 175° |
| 2026-05-06 23:16 | 44.16400 | 1.77845 | 35009 ft | 438 kts | 176° |
| 2026-05-06 23:16 | 44.10369 | 1.79094 | 35015 ft | 438 kts | 175° |
| 2026-05-06 23:17 | 44.04345 | 1.80421 | 35022 ft | 438 kts | 175° |
| 2026-05-06 23:17 | 43.98323 | 1.81767 | 35013 ft | 438 kts | 175° |
| 2026-05-06 23:18 | 43.92300 | 1.82931 | 35023 ft | 435 kts | 179° |
| 2026-05-06 23:18 | 43.86273 | 1.83505 | 35033 ft | 433 kts | 182° |
| 2026-05-06 23:19 | 43.80257 | 1.83923 | 35024 ft | 433 kts | 182° |
| 2026-05-06 23:19 | 43.74252 | 1.84433 | 35034 ft | 432 kts | 181° |
| 2026-05-06 23:20 | 43.68259 | 1.85023 | 35040 ft | 432 kts | 181° |
| 2026-05-06 23:20 | 43.62273 | 1.85628 | 35045 ft | 431 kts | 181° |
| 2026-05-06 23:21 | 43.56291 | 1.86211 | 35034 ft | 430 kts | 181° |
| 2026-05-06 23:21 | 43.50323 | 1.86786 | 35037 ft | 430 kts | 181° |
| 2026-05-06 23:22 | 43.44398 | 1.87347 | 35046 ft | 429 kts | 181° |
| 2026-05-06 23:22 | 43.38438 | 1.87906 | 35028 ft | 429 kts | 181° |
| 2026-05-06 23:23 | 43.32485 | 1.88471 | 35039 ft | 429 kts | 181° |
| 2026-05-06 23:23 | 43.26541 | 1.89043 | 35056 ft | 428 kts | 181° |
| 2026-05-06 23:24 | 43.20590 | 1.89626 | 35040 ft | 428 kts | 181° |
| 2026-05-06 23:24 | 43.14653 | 1.90196 | 35050 ft | 427 kts | 181° |
| 2026-05-06 23:25 | 43.08721 | 1.90758 | 35059 ft | 427 kts | 181° |
| 2026-05-06 23:25 | 43.02795 | 1.91322 | 35058 ft | 426 kts | 182° |
| 2026-05-06 23:26 | 42.96878 | 1.91883 | 35040 ft | 426 kts | 182° |
| 2026-05-06 23:26 | 42.90976 | 1.92435 | 35052 ft | 425 kts | 182° |
| 2026-05-06 23:27 | 42.85078 | 1.92990 | 35053 ft | 424 kts | 182° |
| 2026-05-06 23:27 | 42.79194 | 1.93542 | 35054 ft | 424 kts | 182° |
| 2026-05-06 23:28 | 42.73306 | 1.94102 | 35052 ft | 424 kts | 182° |
| 2026-05-06 23:28 | 42.67429 | 1.94752 | 35046 ft | 427 kts | 176° |
| 2026-05-06 23:29 | 42.61653 | 1.96712 | 35038 ft | 432 kts | 171° |
| 2026-05-06 23:29 | 42.55846 | 1.98805 | 35031 ft | 432 kts | 171° |
| 2026-05-06 23:30 | 42.50039 | 2.00892 | 35040 ft | 431 kts | 171° |
| 2026-05-06 23:30 | 42.44234 | 2.02980 | 35044 ft | 431 kts | 171° |
| 2026-05-06 23:31 | 42.38430 | 2.05055 | 35021 ft | 431 kts | 171° |
| 2026-05-06 23:31 | 42.32631 | 2.07125 | 35039 ft | 430 kts | 171° |
| 2026-05-06 23:32 | 42.26851 | 2.09181 | 35043 ft | 429 kts | 171° |
| 2026-05-06 23:32 | 42.21070 | 2.11220 | 35042 ft | 429 kts | 171° |
| 2026-05-06 23:33 | 42.15337 | 2.13243 | 35038 ft | 428 kts | 171° |
| 2026-05-06 23:33 | 42.09573 | 2.15285 | 35039 ft | 428 kts | 171° |
| 2026-05-06 23:34 | 42.03820 | 2.17319 | 35042 ft | 427 kts | 171° |
| 2026-05-06 23:34 | 41.98071 | 2.19341 | 35037 ft | 427 kts | 171° |
| 2026-05-06 23:35 | 41.92326 | 2.21355 | 35014 ft | 427 kts | 172° |
| 2026-05-06 23:35 | 41.86587 | 2.23366 | 35015 ft | 426 kts | 172° |
| 2026-05-06 23:36 | 41.80844 | 2.25382 | 35017 ft | 426 kts | 172° |
| 2026-05-06 23:36 | 41.75101 | 2.27395 | 34991 ft | 426 kts | 172° |
| 2026-05-06 23:37 | 41.69366 | 2.29391 | 35002 ft | 425 kts | 172° |
| 2026-05-06 23:37 | 41.63642 | 2.31383 | 35004 ft | 425 kts | 172° |
| 2026-05-06 23:38 | 41.57926 | 2.33372 | 35009 ft | 425 kts | 172° |
| 2026-05-06 23:38 | 41.52209 | 2.35363 | 34985 ft | 424 kts | 172° |
| 2026-05-06 23:39 | 41.46506 | 2.37340 | 34978 ft | 423 kts | 173° |
| 2026-05-06 23:39 | 41.40806 | 2.39305 | 34983 ft | 423 kts | 173° |
| 2026-05-06 23:40 | 41.35146 | 2.41265 | 34989 ft | 423 kts | 173° |
| 2026-05-06 23:40 | 41.29451 | 2.43225 | 34965 ft | 422 kts | 173° |
| 2026-05-06 23:41 | 41.23761 | 2.45179 | 34987 ft | 422 kts | 173° |
| 2026-05-06 23:41 | 41.18076 | 2.47145 | 34988 ft | 422 kts | 173° |
| 2026-05-06 23:41 | 41.15235 | 2.48128 | 34811 ft | 420 kts | 173° |
| 2026-05-06 23:42 | 41.12419 | 2.49100 | 34559 ft | 417 kts | 173° |
| 2026-05-06 23:42 | 41.09623 | 2.50063 | 34306 ft | 414 kts | 173° |
| 2026-05-06 23:42 | 41.06848 | 2.51014 | 34071 ft | 410 kts | 173° |
| 2026-05-06 23:42 | 41.04097 | 2.51950 | 33807 ft | 407 kts | 173° |
| 2026-05-06 23:43 | 41.01362 | 2.52877 | 33532 ft | 405 kts | 173° |
| 2026-05-06 23:43 | 40.98638 | 2.53800 | 33258 ft | 403 kts | 173° |
| 2026-05-06 23:43 | 40.95931 | 2.54721 | 32988 ft | 401 kts | 173° |
| 2026-05-06 23:43 | 40.93237 | 2.55638 | 32714 ft | 399 kts | 173° |
| 2026-05-06 23:44 | 40.90557 | 2.56552 | 32455 ft | 397 kts | 173° |
| 2026-05-06 23:44 | 40.87888 | 2.57462 | 32161 ft | 395 kts | 174° |
| 2026-05-06 23:44 | 40.85236 | 2.58363 | 31896 ft | 393 kts | 174° |
| 2026-05-06 23:44 | 40.82596 | 2.59254 | 31637 ft | 391 kts | 174° |
| 2026-05-06 23:45 | 40.79964 | 2.60141 | 31387 ft | 390 kts | 174° |
| 2026-05-06 23:45 | 40.77340 | 2.61032 | 31134 ft | 389 kts | 174° |
| 2026-05-06 23:45 | 40.74728 | 2.61920 | 30885 ft | 387 kts | 174° |
| 2026-05-06 23:45 | 40.72118 | 2.62802 | 30639 ft | 386 kts | 174° |
| 2026-05-06 23:46 | 40.69517 | 2.63680 | 30386 ft | 385 kts | 174° |
| 2026-05-06 23:46 | 40.66961 | 2.64545 | 30146 ft | 384 kts | 173° |
| 2026-05-06 23:46 | 40.64374 | 2.65425 | 29874 ft | 383 kts | 173° |
| 2026-05-06 23:46 | 40.61799 | 2.66296 | 29576 ft | 381 kts | 173° |
| 2026-05-06 23:47 | 40.59235 | 2.67159 | 29321 ft | 380 kts | 173° |
| 2026-05-06 23:47 | 40.56681 | 2.68016 | 29011 ft | 377 kts | 174° |
| 2026-05-06 23:47 | 40.54143 | 2.68869 | 28734 ft | 376 kts | 174° |
| 2026-05-06 23:47 | 40.51618 | 2.69719 | 28465 ft | 373 kts | 173° |
| 2026-05-06 23:48 | 40.49953 | 2.70439 | 28220 ft | 374 kts | 166° |
| 2026-05-06 23:48 | 40.47610 | 2.71975 | 27797 ft | 377 kts | 159° |
| 2026-05-06 23:48 | 40.45330 | 2.73641 | 27361 ft | 373 kts | 158° |
| 2026-05-06 23:48 | 40.43069 | 2.75293 | 26918 ft | 370 kts | 158° |
| 2026-05-06 23:49 | 40.40831 | 2.76927 | 26502 ft | 367 kts | 158° |
| 2026-05-06 23:49 | 40.38633 | 2.78520 | 26067 ft | 364 kts | 158° |
| 2026-05-06 23:49 | 40.36420 | 2.80119 | 25618 ft | 363 kts | 158° |
| 2026-05-06 23:49 | 40.34214 | 2.81710 | 25167 ft | 361 kts | 158° |
| 2026-05-06 23:50 | 40.32018 | 2.83296 | 24710 ft | 360 kts | 157° |
| 2026-05-06 23:50 | 40.27636 | 2.86458 | 23777 ft | 359 kts | 156° |
| 2026-05-06 23:50 | 40.25447 | 2.88032 | 23275 ft | 359 kts | 156° |
| 2026-05-06 23:51 | 40.23260 | 2.89601 | 22798 ft | 357 kts | 156° |
| 2026-05-06 23:51 | 40.21094 | 2.91163 | 22336 ft | 354 kts | 157° |
| 2026-05-06 23:51 | 40.18942 | 2.92717 | 21909 ft | 352 kts | 157° |
| 2026-05-06 23:51 | 40.16806 | 2.94260 | 21474 ft | 350 kts | 156° |
| 2026-05-06 23:52 | 40.14680 | 2.95794 | 21041 ft | 348 kts | 156° |
| 2026-05-06 23:52 | 40.12563 | 2.97315 | 20599 ft | 347 kts | 156° |
| 2026-05-06 23:52 | 40.10451 | 2.98831 | 20166 ft | 345 kts | 156° |
| 2026-05-06 23:52 | 40.08351 | 3.00333 | 19742 ft | 343 kts | 158° |
| 2026-05-06 23:53 | 40.06150 | 3.01431 | 19320 ft | 335 kts | 172° |
| 2026-05-06 23:53 | 40.03867 | 3.01786 | 18912 ft | 328 kts | 185° |
| 2026-05-06 23:53 | 40.01631 | 3.01434 | 18511 ft | 321 kts | 198° |
| 2026-05-06 23:53 | 39.99516 | 3.00537 | 18084 ft | 319 kts | 202° |
| 2026-05-06 23:54 | 39.97429 | 2.99600 | 17719 ft | 316 kts | 201° |
| 2026-05-06 23:54 | 39.95354 | 2.98679 | 17299 ft | 315 kts | 201° |
| 2026-05-06 23:54 | 39.93285 | 2.97765 | 16918 ft | 313 kts | 201° |
| 2026-05-06 23:54 | 39.91228 | 2.96860 | 16544 ft | 311 kts | 201° |
| 2026-05-06 23:55 | 39.89180 | 2.95957 | 16169 ft | 310 kts | 201° |
| 2026-05-06 23:55 | 39.87137 | 2.95052 | 15799 ft | 310 kts | 201° |
| 2026-05-06 23:55 | 39.85122 | 2.94094 | 15431 ft | 307 kts | 207° |
| 2026-05-06 23:55 | 39.83334 | 2.92631 | 15070 ft | 303 kts | 221° |
| 2026-05-06 23:56 | 39.81902 | 2.90644 | 14682 ft | 301 kts | 236° |
| 2026-05-06 23:56 | 39.80732 | 2.88400 | 14369 ft | 299 kts | 237° |
| 2026-05-06 23:56 | 39.79580 | 2.86194 | 14092 ft | 290 kts | 236° |
| 2026-05-06 23:56 | 39.78471 | 2.84086 | 13885 ft | 276 kts | 236° |
| 2026-05-06 23:57 | 39.77394 | 2.82044 | 13528 ft | 273 kts | 236° |
| 2026-05-06 23:57 | 39.76327 | 2.80021 | 13249 ft | 270 kts | 236° |
| 2026-05-06 23:57 | 39.75270 | 2.78014 | 12983 ft | 268 kts | 236° |
| 2026-05-06 23:57 | 39.74220 | 2.76022 | 12722 ft | 267 kts | 236° |
| 2026-05-06 23:58 | 39.73170 | 2.74037 | 12390 ft | 267 kts | 236° |
| 2026-05-06 23:58 | 39.72114 | 2.72045 | 12022 ft | 268 kts | 235° |
| 2026-05-06 23:58 | 39.71073 | 2.70075 | 11676 ft | 269 kts | 236° |
| 2026-05-06 23:58 | 39.70016 | 2.68063 | 11338 ft | 269 kts | 236° |
| 2026-05-06 23:59 | 39.68959 | 2.66047 | 10968 ft | 270 kts | 236° |
| 2026-05-06 23:59 | 39.67903 | 2.64042 | 10633 ft | 271 kts | 235° |
| 2026-05-06 23:59 | 39.66844 | 2.62038 | 10381 ft | 267 kts | 235° |
| 2026-05-06 23:59 | 39.65801 | 2.60068 | 9894 ft | 264 kts | 235° |
| 2026-05-07 00:00 | 39.64770 | 2.58117 | 9453 ft | 262 kts | 235° |
| 2026-05-07 00:00 | 39.63738 | 2.56164 | 9075 ft | 262 kts | 235° |
| 2026-05-07 00:00 | 39.62710 | 2.54219 | 8714 ft | 262 kts | 235° |
| 2026-05-07 00:00 | 39.61681 | 2.52273 | 8355 ft | 261 kts | 235° |
| 2026-05-07 00:01 | 39.60654 | 2.50338 | 8000 ft | 260 kts | 234° |
| 2026-05-07 00:01 | 39.59627 | 2.48407 | 7639 ft | 260 kts | 235° |
| 2026-05-07 00:01 | 39.58605 | 2.46485 | 7285 ft | 259 kts | 235° |
| 2026-05-07 00:01 | 39.57586 | 2.44563 | 6937 ft | 258 kts | 235° |
| 2026-05-07 00:02 | 39.56532 | 2.42688 | 6573 ft | 257 kts | 225° |
| 2026-05-07 00:02 | 39.55041 | 2.41492 | 6215 ft | 253 kts | 193° |
| 2026-05-07 00:02 | 39.53317 | 2.41458 | 5847 ft | 249 kts | 162° |
| 2026-05-07 00:02 | 39.51811 | 2.42496 | 5460 ft | 246 kts | 142° |
| 2026-05-07 00:03 | 39.50428 | 2.43797 | 5069 ft | 245 kts | 142° |
| 2026-05-07 00:03 | 39.49055 | 2.45088 | 4759 ft | 243 kts | 142° |
| 2026-05-07 00:03 | 39.47693 | 2.46366 | 4429 ft | 241 kts | 142° |
| 2026-05-07 00:03 | 39.46394 | 2.47702 | 4122 ft | 236 kts | 130° |
| 2026-05-07 00:04 | 39.45614 | 2.49511 | 3851 ft | 229 kts | 103° |
| 2026-05-07 00:04 | 39.45548 | 2.51531 | 3581 ft | 225 kts | 78° |
| 2026-05-07 00:04 | 39.46152 | 2.53370 | 3318 ft | 223 kts | 59° |
| 2026-05-07 00:04 | 39.46943 | 2.55055 | 3046 ft | 215 kts | 59° |
| 2026-05-07 00:05 | 39.47734 | 2.56696 | 2751 ft | 215 kts | 58° |
| 2026-05-07 00:05 | 39.48534 | 2.58332 | 2463 ft | 215 kts | 59° |
| 2026-05-07 00:05 | 39.49333 | 2.59965 | 2164 ft | 215 kts | 59° |
| 2026-05-07 00:05 | 39.50120 | 2.61576 | 1880 ft | 208 kts | 59° |
| 2026-05-07 00:06 | 39.50873 | 2.63115 | 1612 ft | 196 kts | 59° |
| 2026-05-07 00:06 | 39.51552 | 2.64507 | 1363 ft | 175 kts | 59° |
| 2026-05-07 00:06 | 39.52187 | 2.65810 | 1097 ft | 163 kts | 59° |
| 2026-05-07 00:06 | 39.52767 | 2.67006 | 847 ft | 154 kts | 59° |
| 2026-05-07 00:07 | 39.53333 | 2.68173 | 628 ft | 148 kts | 57° |
| 2026-05-07 00:07 | 39.53869 | 2.69281 | 409 ft | 144 kts | 58° |
| 2026-05-07 00:07 | 39.54391 | 2.70360 | 224 ft | 142 kts | 59° |
| 2026-05-07 00:07 | 39.54907 | 2.71463 | 44 ft | 143 kts | 57° |
| 2026-05-07 00:08 | 39.55367 | 2.72439 | 38 ft | 105 kts | 58° |
| 2026-05-07 00:08 | 39.55659 | 2.73055 | 38 ft | 56 kts | 59° |
| 2026-05-07 00:08 | 39.55715 | 2.73315 | 36 ft | 21 kts | 84° |
| 2026-05-07 00:08 | 39.55721 | 2.73494 | 38 ft | 13 kts | 89° |
| 2026-05-07 00:09 | 39.55679 | 2.73533 | 38 ft | 8 kts | 194° |
| 2026-05-07 00:09 | 39.55645 | 2.73478 | 38 ft | 7 kts | 239° |
| 2026-05-07 00:09 | 39.55612 | 2.73411 | 38 ft | 10 kts | 238° |
| 2026-05-07 00:09 | 39.55577 | 2.73337 | 36 ft | 9 kts | 238° |
| 2026-05-07 00:10 | 39.55539 | 2.73258 | 38 ft | 13 kts | 239° |
| 2026-05-07 00:10 | 39.55491 | 2.73154 | 38 ft | 13 kts | 239° |
| 2026-05-07 00:10 | 39.55446 | 2.73059 | 38 ft | 12 kts | 238° |
| 2026-05-07 00:10 | 39.55406 | 2.72977 | 38 ft | 9 kts | 230° |
| 2026-05-07 00:11 | 39.55357 | 2.72985 | 38 ft | 8 kts | 150° |
| 2026-05-07 00:11 | 39.55305 | 2.73025 | 38 ft | 9 kts | 148° |
| 2026-05-07 00:11 | 39.55246 | 2.73040 | 38 ft | 6 kts | 191° |
| 2026-05-07 00:11 | 39.55213 | 2.73029 | 38 ft | 3 kts | 194° |
| 2026-05-07 00:12 | 39.55193 | 2.73023 | 38 ft | 3 kts | 194° |
| 2026-05-07 00:12 | 39.55177 | 2.73018 | 38 ft | 2 kts | 194° |
| 2026-05-07 00:12 | 39.55164 | 2.73013 | 38 ft | 2 kts | 195° |
| 2026-05-07 00:12 | 39.55156 | 2.73011 | 38 ft | 0 kts | 195° |